EGNS Airport Information

Runway Information
Runway 03 Length 3934 ft width 151 ft
Elevation 23 ft Threshold 312 ft Heading 28
Runway 21 Length 3934 ft Width 151 ft
Elevation 52 ft Threshold 0 ft Heading 208
Runway 08 Length 5751 ft width 151 ft
Elevation 29 ft Threshold 951 ft Heading 78
Runway 26 Length 5751 ft Width 151 ft
Elevation 32 ft Threshold 459 ft Heading 258
Runway 17 Length 2963 ft width 89 ft
Elevation 0 ft Threshold 0 ft Heading 175
Runway 35 Length 2963 ft Width 89 ft
Elevation 18 ft Threshold 0 ft Heading 355
Airport Frequencies
Type APP Name RONALDSWAY Frequency 120.85 MHZ
Type ATIS Name ATIS Frequency 123.875 MHZ
Type TWR Name RONALDSWAY Frequency 118.9 MHZ
Airport Navaids
Type NDB Name Carnane Frequency 367 KHZ
Type VOR-DME Name Isle Of Man Frequency 112200 KHZ
Airport Weather Information & NOTAM
ADDS - METARS form results

(1340 UTC 25 October 2021)
Data provider http://aviationweather.gov/metar/data/
 
METAR text: EGNS 251320Z 25017KT 9999 SCT025 13/07 Q1010 NOSIG
Conditions at: EGNS (ISLE OF MAN/RONA, GB) observed 1320 UTC 25 October 2021
Temperature: 13.0°C (55°F)
Dewpoint: 7.0°C (45°F) [RH = 67%]
Pressure (altimeter): 29.82 inches Hg (1010.0 mb)
Winds: from the WSW (250 degrees) at 20 MPH (17 knots; 8.7 m/s)
Visibility: 6 or more miles (10+ km)
Ceiling: at least 12,000 feet AGL
Clouds: scattered clouds at 2500 feet AGL
Weather: no significant weather observed at this time

METAR text: EGNS 251250Z 25016KT 9999 SCT022 13/07 Q1010 NOSIG
Conditions at: EGNS (ISLE OF MAN/RONA, GB) observed 1250 UTC 25 October 2021
Temperature: 13.0°C (55°F)
Dewpoint: 7.0°C (45°F) [RH = 67%]
Pressure (altimeter): 29.82 inches Hg (1010.0 mb)
Winds: from the WSW (250 degrees) at 18 MPH (16 knots; 8.2 m/s)
Visibility: 6 or more miles (10+ km)
Ceiling: at least 12,000 feet AGL
Clouds: scattered clouds at 2200 feet AGL
Weather: no significant weather observed at this time

Forecast for: EGNS (ISLE OF MAN/RONA, GB)
Text: TAF EGNS 251100Z 2512/2521 25017KT 9999 FEW020
Forecast period: 1200 to 2100 UTC 25 October 2021
Forecast type: FROM: standard forecast or significant change
Winds: from the WSW (250 degrees) at 20 MPH (17 knots; 8.7 m/s)
Visibility: 6 or more miles (10+ km)
Ceiling: at least 12,000 feet AGL
Clouds: few clouds at 2000 feet AGL
Weather: no significant weather forecast for this period